createdAt,value
2023-02-14T00:00:56.185Z,65.70
2023-02-14T00:03:24.113Z,65.70
2023-02-14T00:05:51.948Z,65.70
2023-02-14T00:08:19.713Z,65.70
2023-02-14T00:10:47.428Z,65.70
2023-02-14T00:13:15.149Z,65.70
2023-02-14T00:15:41.930Z,65.70
2023-02-14T00:18:10.958Z,65.80
2023-02-14T00:20:38.649Z,65.70
2023-02-14T00:23:06.328Z,65.70
2023-02-14T00:25:35.005Z,65.70
2023-02-14T00:28:02.697Z,65.70
2023-02-14T00:30:30.600Z,65.70
2023-02-14T00:32:58.362Z,65.70
2023-02-14T00:35:27.394Z,65.70
2023-02-14T00:37:55.323Z,65.70
2023-02-14T00:40:23.241Z,65.70
2023-02-14T00:42:50.933Z,65.70
2023-02-14T00:45:20.353Z,65.70
2023-02-14T00:47:48.077Z,65.70
2023-02-14T00:50:15.879Z,65.70
2023-02-14T00:52:44.894Z,65.70
2023-02-14T00:55:12.705Z,65.70
2023-02-14T00:57:40.760Z,65.70
2023-02-14T01:00:09.909Z,65.70
2023-02-14T01:02:37.696Z,65.70
2023-02-14T01:05:06.284Z,65.70
2023-02-14T01:07:33.979Z,65.80
2023-02-14T01:10:03.030Z,65.70
2023-02-14T01:12:31.575Z,65.70
2023-02-14T01:14:59.280Z,65.70
2023-02-14T01:17:27.069Z,65.70
2023-02-14T01:19:55.363Z,65.70
2023-02-14T01:22:24.548Z,65.70
2023-02-14T01:24:53.210Z,65.70
2023-02-14T01:27:22.220Z,65.70
2023-02-14T01:29:49.956Z,65.70
2023-02-14T01:32:19.832Z,65.70
2023-02-14T01:34:48.305Z,65.60
2023-02-14T01:37:15.980Z,65.70
2023-02-14T01:39:43.776Z,65.70
2023-02-14T01:42:15.172Z,65.70
2023-02-14T01:44:59.055Z,65.60
2023-02-14T01:47:29.452Z,65.70
2023-02-14T01:50:01.711Z,65.60
2023-02-14T01:52:34.875Z,65.60
2023-02-14T01:55:05.916Z,65.60
2023-02-14T01:57:39.205Z,65.60
2023-02-14T02:00:33.591Z,65.60
2023-02-14T02:03:02.343Z,65.60
2023-02-14T02:05:30.486Z,65.70
2023-02-14T02:08:01.395Z,65.60
2023-02-14T02:10:29.547Z,65.70
2023-02-14T02:13:01.561Z,65.70
2023-02-14T02:15:36.234Z,65.70
2023-02-14T02:18:11.788Z,65.70
2023-02-14T02:21:07.294Z,65.70
2023-02-14T02:24:01.193Z,65.70
2023-02-14T02:27:08.594Z,65.70
2023-02-14T02:30:30.958Z,65.70
2023-02-14T02:33:53.045Z,65.70
2023-02-14T02:36:45.213Z,65.70
2023-02-14T02:39:32.653Z,65.70
2023-02-14T02:42:07.612Z,65.70
2023-02-14T02:44:45.708Z,65.70
2023-02-14T02:47:23.406Z,65.70
2023-02-14T02:50:17.628Z,65.70
2023-02-14T02:53:06.860Z,65.70
2023-02-14T02:56:00.992Z,65.70
2023-02-14T02:58:35.199Z,65.70
2023-02-14T03:01:08.022Z,65.60
2023-02-14T03:03:54.831Z,65.60
2023-02-14T03:06:22.574Z,65.70
2023-02-14T03:08:51.610Z,65.70
2023-02-14T03:11:19.662Z,65.70
2023-02-14T03:14:05.256Z,65.70
2023-02-14T03:16:36.390Z,65.70
2023-02-14T03:19:51.726Z,65.70
2023-02-14T03:22:29.814Z,65.70
2023-02-14T03:25:07.166Z,65.60
2023-02-14T03:27:40.510Z,65.70
2023-02-14T03:30:15.541Z,65.70
2023-02-14T03:32:47.992Z,65.70
2023-02-14T03:35:21.133Z,65.70
2023-02-14T03:37:53.231Z,65.70
2023-02-14T03:40:27.026Z,65.70
2023-02-14T03:43:01.763Z,65.70
2023-02-14T03:45:35.432Z,65.70
2023-02-14T03:48:07.488Z,65.70
2023-02-14T03:50:37.772Z,65.70
2023-02-14T03:53:08.940Z,65.70
2023-02-14T03:55:45.189Z,65.70
2023-02-14T03:58:18.090Z,65.70
2023-02-14T04:00:48.989Z,65.70
2023-02-14T04:03:19.546Z,65.70
2023-02-14T04:05:52.115Z,65.70
2023-02-14T04:08:23.867Z,65.70
2023-02-14T04:10:53.732Z,65.70
2023-02-14T04:13:21.817Z,65.70
2023-02-14T04:15:49.577Z,65.70
2023-02-14T04:18:35.016Z,65.70
2023-02-14T04:21:02.747Z,65.70
2023-02-14T04:23:30.782Z,65.70
2023-02-14T04:25:59.846Z,65.70
2023-02-14T04:28:27.591Z,65.80
2023-02-14T04:30:55.407Z,65.80
2023-02-14T04:33:23.180Z,65.80
2023-02-14T04:35:50.890Z,65.80
2023-02-14T04:38:18.625Z,65.80
2023-02-14T04:40:46.332Z,65.80
2023-02-14T04:43:15.370Z,65.80
2023-02-14T04:45:43.237Z,65.80
2023-02-14T04:48:11.419Z,65.80
2023-02-14T04:50:39.127Z,65.80
2023-02-14T04:53:06.895Z,65.80
2023-02-14T04:55:34.593Z,65.80
2023-02-14T04:58:02.311Z,65.80
2023-02-14T05:00:31.391Z,65.80
2023-02-14T05:02:59.089Z,65.80
2023-02-14T05:05:26.865Z,65.80
2023-02-14T05:07:54.576Z,65.80
2023-02-14T05:10:22.254Z,65.70
2023-02-14T05:12:49.961Z,65.70
2023-02-14T05:15:17.865Z,65.70
2023-02-14T05:17:46.870Z,65.60
2023-02-14T05:20:14.748Z,65.60
2023-02-14T05:22:42.441Z,65.60
2023-02-14T05:25:10.298Z,65.40
2023-02-14T05:27:38.029Z,65.40
2023-02-14T05:30:06.872Z,65.30
2023-02-14T05:32:34.592Z,65.30
2023-02-14T05:35:03.655Z,65.30
2023-02-14T05:37:31.541Z,65.30
2023-02-14T05:39:59.297Z,65.20
2023-02-14T05:42:27.026Z,65.20
2023-02-14T05:44:54.713Z,65.20
2023-02-14T05:47:22.405Z,65.20
2023-02-14T05:49:50.079Z,65.20
2023-02-14T05:52:19.087Z,65.20
2023-02-14T05:54:46.822Z,65.20
2023-02-14T05:57:15.053Z,65.20
2023-02-14T05:59:42.809Z,65.20
2023-02-14T06:02:11.263Z,65.40
2023-02-14T06:04:39.048Z,65.60
2023-02-14T06:07:06.853Z,65.80
2023-02-14T06:09:35.920Z,65.90
2023-02-14T06:12:03.748Z,66.00
2023-02-14T06:14:31.432Z,65.90
2023-02-14T06:16:59.156Z,65.80
2023-02-14T06:19:26.931Z,65.80
2023-02-14T06:21:54.612Z,65.80
2023-02-14T06:24:22.575Z,65.80
2023-02-14T06:26:51.586Z,65.80
2023-02-14T06:29:19.455Z,65.80
2023-02-14T06:31:47.488Z,65.80
2023-02-14T06:34:16.215Z,65.80
2023-02-14T06:36:44.104Z,65.90
2023-02-14T06:39:11.782Z,65.90
2023-02-14T06:41:39.480Z,65.90
2023-02-14T06:44:10.279Z,65.90
2023-02-14T06:46:37.978Z,65.90
2023-02-14T06:49:05.720Z,65.90
2023-02-14T06:51:33.434Z,65.90
2023-02-14T06:54:01.138Z,65.90
2023-02-14T06:56:28.917Z,65.90
2023-02-14T06:58:56.607Z,65.80
2023-02-14T07:01:25.826Z,65.70
2023-02-14T07:03:53.529Z,65.70
2023-02-14T07:06:21.226Z,65.60
2023-02-14T07:08:48.901Z,65.60
2023-02-14T07:11:16.721Z,65.60
2023-02-14T07:13:44.657Z,65.50
2023-02-14T07:16:12.480Z,65.50
2023-02-14T07:18:41.605Z,65.40
2023-02-14T07:21:09.288Z,65.40
2023-02-14T07:23:36.976Z,65.30
2023-02-14T07:26:04.848Z,65.30
2023-02-14T07:28:33.563Z,65.20
2023-02-14T07:31:01.973Z,65.20
2023-02-14T07:33:30.062Z,65.10
2023-02-14T07:35:59.107Z,65.10
2023-02-14T07:38:30.361Z,65.10
2023-02-14T07:40:58.382Z,65.00
2023-02-14T07:43:26.531Z,64.90
2023-02-14T07:45:54.342Z,64.90
2023-02-14T07:48:23.303Z,64.80
2023-02-14T07:50:51.029Z,64.80
2023-02-14T07:53:20.047Z,64.70
2023-02-14T07:55:50.620Z,64.60
2023-02-14T07:58:18.368Z,64.50
2023-02-14T08:00:46.385Z,64.50
2023-02-14T08:03:14.394Z,64.30
2023-02-14T08:05:42.538Z,64.30
2023-02-14T08:08:10.269Z,64.20
2023-02-14T08:10:39.307Z,64.10
2023-02-14T08:13:07.452Z,64.10
2023-02-14T08:15:53.476Z,64.00
2023-02-14T08:18:22.982Z,64.00
2023-02-14T08:20:51.053Z,63.90
2023-02-14T08:23:19.528Z,63.90
2023-02-14T08:25:49.249Z,63.90
2023-02-14T08:28:17.199Z,63.90
2023-02-14T08:30:46.002Z,63.80
2023-02-14T08:33:13.759Z,63.80
2023-02-14T08:35:41.448Z,63.80
2023-02-14T08:38:09.297Z,63.80
2023-02-14T08:40:37.469Z,63.70
2023-02-14T08:43:07.505Z,63.70
2023-02-14T08:45:35.339Z,63.70
2023-02-14T08:48:05.423Z,63.70
2023-02-14T08:50:34.041Z,63.60
2023-02-14T08:53:01.948Z,63.60
2023-02-14T08:55:29.663Z,63.60
2023-02-14T08:57:58.077Z,63.70
2023-02-14T09:00:27.733Z,63.70
2023-02-14T09:02:55.497Z,63.60
2023-02-14T09:05:24.183Z,63.50
2023-02-14T09:07:52.294Z,63.60
2023-02-14T09:10:20.338Z,63.60
2023-02-14T09:12:48.115Z,63.50
2023-02-14T09:15:15.906Z,63.50
2023-02-14T09:17:45.054Z,63.50
2023-02-14T09:20:14.815Z,63.50
2023-02-14T09:22:43.389Z,63.50
2023-02-14T09:25:11.712Z,63.50
2023-02-14T09:27:39.460Z,63.50
2023-02-14T09:30:09.368Z,63.40
2023-02-14T09:32:37.247Z,63.50
2023-02-14T09:35:24.597Z,63.40
2023-02-14T09:38:10.091Z,63.40
2023-02-14T09:40:37.871Z,63.30
2023-02-14T09:43:10.943Z,63.30
2023-02-14T09:45:40.286Z,63.30
2023-02-14T09:48:13.267Z,63.40
2023-02-14T09:50:47.033Z,63.30
2023-02-14T09:53:23.643Z,63.30
2023-02-14T09:55:56.833Z,63.30
2023-02-14T09:58:30.900Z,63.30
2023-02-14T10:01:05.229Z,63.20
2023-02-14T10:03:48.943Z,63.20
2023-02-14T10:06:33.502Z,63.20
2023-02-14T10:09:09.302Z,63.20
2023-02-14T10:11:37.260Z,63.20
2023-02-14T10:14:11.657Z,63.10
2023-02-14T10:16:44.606Z,63.10
2023-02-14T10:19:20.324Z,63.10
2023-02-14T10:21:55.289Z,63.00
2023-02-14T10:24:28.431Z,63.00
2023-02-14T10:27:01.235Z,63.00
2023-02-14T10:29:29.091Z,62.90
2023-02-14T10:32:00.275Z,62.90
2023-02-14T10:34:36.914Z,62.90
2023-02-14T10:37:19.810Z,62.80
2023-02-14T10:40:10.551Z,62.80
2023-02-14T10:42:50.957Z,62.80
2023-02-14T10:45:27.011Z,62.70
2023-02-14T10:48:02.073Z,62.70
2023-02-14T10:50:37.237Z,62.80
2023-02-14T10:53:18.814Z,62.90
2023-02-14T10:55:53.716Z,63.30
2023-02-14T10:58:23.134Z,63.70
2023-02-14T11:00:56.358Z,64.00
2023-02-14T11:03:24.723Z,64.50
2023-02-14T11:05:52.707Z,65.10
2023-02-14T11:08:26.921Z,65.40
2023-02-14T11:10:58.410Z,65.50
2023-02-14T11:13:35.795Z,65.50
2023-02-14T11:16:05.901Z,65.50
2023-02-14T11:18:36.035Z,65.70
2023-02-14T11:21:08.435Z,65.60
2023-02-14T11:23:40.376Z,65.50
2023-02-14T11:26:15.281Z,65.40
2023-02-14T11:28:51.099Z,64.80
2023-02-14T11:31:27.423Z,64.50
2023-02-14T11:33:55.391Z,64.30
2023-02-14T11:36:24.505Z,64.00
2023-02-14T11:39:01.739Z,63.90
2023-02-14T11:41:47.551Z,63.70
2023-02-14T11:44:23.706Z,63.60
2023-02-14T11:46:54.048Z,63.40
2023-02-14T11:49:30.818Z,63.20
2023-02-14T11:51:59.987Z,63.20
2023-02-14T11:54:34.411Z,63.20
2023-02-14T11:57:08.387Z,63.00
2023-02-14T11:59:40.202Z,63.00
2023-02-14T12:02:19.597Z,63.00
2023-02-14T12:04:49.915Z,63.00
2023-02-14T12:07:21.644Z,62.90
2023-02-14T12:10:16.705Z,62.90
2023-02-14T12:12:50.811Z,63.00
2023-02-14T12:15:36.588Z,62.90
2023-02-14T12:18:30.770Z,62.90
2023-02-14T12:21:03.069Z,62.90
2023-02-14T12:23:41.925Z,62.90
2023-02-14T12:26:20.524Z,62.80
2023-02-14T12:28:57.673Z,62.80
2023-02-14T12:31:25.462Z,62.80
2023-02-14T12:33:53.326Z,62.80
2023-02-14T12:36:38.569Z,62.70
2023-02-14T12:39:13.704Z,63.60
2023-02-14T12:41:50.093Z,62.70
2023-02-14T12:44:25.833Z,62.70
2023-02-14T12:47:16.511Z,62.70
2023-02-14T12:50:08.050Z,62.70
2023-02-14T12:52:54.081Z,62.60
2023-02-14T12:55:37.748Z,62.60
2023-02-14T12:58:19.253Z,62.50
2023-02-14T13:00:56.879Z,62.50
2023-02-14T13:03:38.774Z,62.50
2023-02-14T13:06:17.431Z,62.50
2023-02-14T13:09:03.222Z,62.50
2023-02-14T13:11:40.156Z,62.50
2023-02-14T13:14:23.881Z,62.40
2023-02-14T13:16:56.920Z,62.40
2023-02-14T13:19:36.422Z,62.40
2023-02-14T13:22:07.085Z,62.50
2023-02-14T13:24:40.812Z,62.40
2023-02-14T13:27:14.997Z,62.50
2023-02-14T13:29:47.944Z,62.40
2023-02-14T13:32:20.639Z,62.40
2023-02-14T13:34:50.087Z,62.40
2023-02-14T13:37:21.294Z,62.40
2023-02-14T13:39:52.179Z,62.40
2023-02-14T13:42:52.028Z,62.40
2023-02-14T13:45:53.817Z,62.40
2023-02-14T13:48:23.968Z,62.40
2023-02-14T13:50:54.134Z,62.40
2023-02-14T13:53:46.794Z,62.30
2023-02-14T13:56:41.513Z,62.40
2023-02-14T13:59:26.979Z,62.40
2023-02-14T14:01:56.443Z,62.30
2023-02-14T14:04:38.390Z,62.30
2023-02-14T14:07:26.908Z,62.20
2023-02-14T14:10:00.114Z,62.40
2023-02-14T14:12:44.294Z,62.20
2023-02-14T14:15:20.362Z,62.20
2023-02-14T14:18:05.460Z,62.10
2023-02-14T14:20:44.218Z,62.10
2023-02-14T14:23:34.075Z,62.10
2023-02-14T14:26:03.378Z,62.10
2023-02-14T14:28:33.547Z,62.10
2023-02-14T14:31:01.343Z,62.00
2023-02-14T14:33:32.140Z,62.00
2023-02-14T14:36:02.937Z,62.10
2023-02-14T14:38:32.071Z,62.10
2023-02-14T14:41:00.836Z,62.10
2023-02-14T14:43:31.598Z,62.10
2023-02-14T14:46:02.371Z,62.00
2023-02-14T14:48:38.199Z,61.90
2023-02-14T14:51:08.292Z,61.80
2023-02-14T14:53:44.271Z,61.80
2023-02-14T14:56:13.775Z,61.70
2023-02-14T14:58:42.691Z,61.70
2023-02-14T15:01:15.945Z,61.60
2023-02-14T15:03:45.436Z,61.60
2023-02-14T15:06:19.984Z,61.50
2023-02-14T15:08:48.600Z,61.40
2023-02-14T15:11:34.681Z,61.30
2023-02-14T15:14:05.567Z,61.30
2023-02-14T15:16:39.256Z,61.30
2023-02-14T15:19:11.630Z,61.30
2023-02-14T15:21:44.222Z,61.40
2023-02-14T15:24:16.866Z,61.40
2023-02-14T15:26:45.669Z,61.40
2023-02-14T15:29:22.970Z,61.50
2023-02-14T15:31:51.466Z,61.50
2023-02-14T15:34:24.512Z,61.60
2023-02-14T15:36:53.880Z,61.60
2023-02-14T15:39:27.546Z,61.70
2023-02-14T15:41:56.438Z,61.70
2023-02-14T15:44:26.319Z,61.70
2023-02-14T15:46:59.552Z,61.70
2023-02-14T15:49:33.997Z,61.70
2023-02-14T15:52:03.477Z,61.80
2023-02-14T15:54:36.358Z,61.90
2023-02-14T15:57:05.190Z,61.90
2023-02-14T15:59:36.311Z,61.90
2023-02-14T16:02:17.122Z,61.90
2023-02-14T16:04:46.233Z,61.90
2023-02-14T16:07:24.588Z,61.90
2023-02-14T16:10:13.025Z,61.90
2023-02-14T16:12:41.436Z,62.10
2023-02-14T16:15:20.173Z,62.10
2023-02-14T16:17:48.376Z,62.10
2023-02-14T16:20:40.481Z,62.00
2023-02-14T16:23:26.295Z,62.10
2023-02-14T16:25:57.134Z,62.10
2023-02-14T16:28:28.743Z,62.10
2023-02-14T16:30:58.801Z,62.10
2023-02-14T16:33:28.342Z,62.10
2023-02-14T16:36:06.099Z,62.10
2023-02-14T16:38:36.355Z,62.10
2023-02-14T16:41:04.248Z,62.10
2023-02-14T16:43:31.923Z,62.10
2023-02-14T16:46:00.024Z,62.00
2023-02-14T16:48:27.747Z,61.90
2023-02-14T16:50:57.384Z,61.80
2023-02-14T16:53:28.200Z,61.70
2023-02-14T16:55:58.196Z,61.70
2023-02-14T16:58:29.076Z,61.70
2023-02-14T17:00:58.354Z,61.60
2023-02-14T17:03:26.338Z,61.60
2023-02-14T17:05:55.479Z,61.60
2023-02-14T17:08:25.346Z,61.60
2023-02-14T17:10:53.640Z,61.60
2023-02-14T17:13:24.613Z,61.50
2023-02-14T17:15:53.707Z,61.60
2023-02-14T17:18:24.425Z,61.60
2023-02-14T17:20:52.457Z,61.60
2023-02-14T17:23:20.764Z,61.70
2023-02-14T17:25:49.870Z,61.70
2023-02-14T17:28:17.594Z,61.60
2023-02-14T17:30:45.327Z,61.70
2023-02-14T17:33:13.450Z,61.70
2023-02-14T17:35:41.174Z,61.80
2023-02-14T17:38:09.395Z,61.80
2023-02-14T17:40:37.088Z,61.90
2023-02-14T17:43:06.106Z,61.90
2023-02-14T17:45:33.883Z,62.00
2023-02-14T17:48:01.650Z,62.10
2023-02-14T17:50:29.412Z,62.20
2023-02-14T17:52:57.936Z,62.30
2023-02-14T17:55:25.648Z,62.40
2023-02-14T17:57:53.358Z,62.30
2023-02-14T18:00:24.073Z,62.30
2023-02-14T18:02:51.828Z,62.30
2023-02-14T18:05:19.568Z,62.30
2023-02-14T18:07:47.503Z,62.40
2023-02-14T18:10:15.233Z,62.40
2023-02-14T18:12:43.306Z,62.40
2023-02-14T18:15:11.219Z,62.40
2023-02-14T18:17:40.238Z,62.50
2023-02-14T18:20:09.137Z,62.50
2023-02-14T18:22:36.922Z,62.60
2023-02-14T18:25:04.914Z,62.60
2023-02-14T18:27:32.660Z,62.60
2023-02-14T18:30:00.499Z,62.70
2023-02-14T18:32:28.273Z,62.70
2023-02-14T18:34:57.292Z,62.70
2023-02-14T18:37:24.974Z,62.70
2023-02-14T18:39:52.692Z,62.70
2023-02-14T18:42:20.386Z,62.70
2023-02-14T18:44:48.083Z,62.70
2023-02-14T18:47:15.784Z,62.70
2023-02-14T18:49:43.483Z,62.70
2023-02-14T18:52:12.498Z,62.70
2023-02-14T18:54:40.518Z,62.80
2023-02-14T18:57:08.529Z,62.80
2023-02-14T18:59:36.266Z,62.80
2023-02-14T19:02:04.147Z,62.90
2023-02-14T19:04:32.125Z,62.90
2023-02-14T19:06:59.816Z,62.90
2023-02-14T19:09:29.378Z,63.00
2023-02-14T19:11:59.910Z,63.00
2023-02-14T19:14:27.787Z,63.00
2023-02-14T19:16:55.493Z,63.00
2023-02-14T19:19:23.988Z,63.00
2023-02-14T19:21:52.184Z,63.10
2023-02-14T19:24:21.096Z,63.10
2023-02-14T19:26:50.109Z,63.10
2023-02-14T19:29:19.461Z,63.10
2023-02-14T19:31:49.536Z,63.20
2023-02-14T19:34:19.612Z,63.20
2023-02-14T19:36:48.063Z,63.20
2023-02-14T19:39:16.777Z,63.20
2023-02-14T19:41:44.580Z,63.20
2023-02-14T19:44:15.075Z,63.20
2023-02-14T19:46:43.728Z,63.20
2023-02-14T19:49:14.300Z,63.20
2023-02-14T19:51:42.741Z,63.10
2023-02-14T19:54:10.575Z,63.20
2023-02-14T19:56:40.533Z,63.20
2023-02-14T19:59:09.427Z,63.20
2023-02-14T20:01:41.774Z,63.20
2023-02-14T20:04:13.619Z,63.20
2023-02-14T20:06:42.387Z,63.20
2023-02-14T20:09:10.691Z,63.10
2023-02-14T20:11:41.425Z,63.20
2023-02-14T20:14:10.080Z,63.20
2023-02-14T20:16:39.194Z,63.20
2023-02-14T20:19:11.948Z,63.10
2023-02-14T20:21:41.725Z,63.10
2023-02-14T20:24:10.726Z,63.10
2023-02-14T20:26:41.468Z,63.20
2023-02-14T20:29:11.335Z,63.20
2023-02-14T20:31:42.847Z,63.20
2023-02-14T20:34:11.133Z,63.20
2023-02-14T20:36:39.649Z,63.10
2023-02-14T20:39:09.097Z,63.20
2023-02-14T20:41:37.093Z,63.20
2023-02-14T20:44:07.297Z,63.10
2023-02-14T20:46:35.549Z,63.10
2023-02-14T20:49:05.315Z,63.10
2023-02-14T20:51:33.051Z,63.20
2023-02-14T20:54:03.309Z,63.10
2023-02-14T20:56:31.324Z,63.10
2023-02-14T20:59:00.797Z,63.10
2023-02-14T21:01:28.772Z,63.10
2023-02-14T21:03:56.934Z,63.10
2023-02-14T21:06:28.170Z,63.00
2023-02-14T21:08:56.222Z,63.10
2023-02-14T21:11:26.624Z,63.10
2023-02-14T21:13:55.016Z,63.10
2023-02-14T21:16:22.775Z,63.20
2023-02-14T21:18:54.945Z,63.10
2023-02-14T21:21:24.521Z,63.20
2023-02-14T21:23:54.193Z,63.20
2023-02-14T21:26:22.230Z,63.30
2023-02-14T21:28:49.935Z,63.30
2023-02-14T21:31:20.641Z,63.30
2023-02-14T21:33:50.932Z,63.40
2023-02-14T21:36:19.801Z,63.50
2023-02-14T21:38:47.883Z,63.40
2023-02-14T21:41:18.819Z,63.50
2023-02-14T21:43:48.882Z,63.50
2023-02-14T21:46:18.342Z,63.60
2023-02-14T21:49:03.929Z,63.70
2023-02-14T21:51:32.463Z,63.70
2023-02-14T21:54:00.637Z,63.80
2023-02-14T21:56:29.740Z,63.70
2023-02-14T21:58:57.821Z,63.80
2023-02-14T22:01:27.295Z,63.80
2023-02-14T22:03:56.442Z,63.80
2023-02-14T22:06:25.058Z,63.90
2023-02-14T22:08:54.171Z,64.40
2023-02-14T22:11:22.847Z,64.00
2023-02-14T22:13:51.950Z,64.00
2023-02-14T22:16:21.905Z,64.00
2023-02-14T22:18:50.092Z,64.10
2023-02-14T22:21:21.241Z,64.20
2023-02-14T22:23:49.353Z,64.20
2023-02-14T22:26:18.850Z,64.30
2023-02-14T22:28:48.678Z,64.30
2023-02-14T22:31:19.734Z,64.30
2023-02-14T22:33:48.675Z,64.30
2023-02-14T22:36:16.845Z,64.30
2023-02-14T22:38:44.876Z,64.40
2023-02-14T22:41:14.296Z,64.40
2023-02-14T22:43:43.106Z,64.50
2023-02-14T22:46:12.949Z,64.50
2023-02-14T22:48:42.351Z,64.50
2023-02-14T22:51:12.173Z,64.60
2023-02-14T22:53:40.335Z,64.60
2023-02-14T22:56:13.465Z,64.60
2023-02-14T22:58:41.198Z,64.70
2023-02-14T23:01:14.638Z,64.70
2023-02-14T23:03:43.820Z,64.80
2023-02-14T23:06:11.834Z,64.80
2023-02-14T23:08:40.249Z,64.80
2023-02-14T23:11:10.141Z,64.80
2023-02-14T23:13:56.227Z,64.80
2023-02-14T23:16:37.936Z,64.90
2023-02-14T23:19:24.752Z,64.90
2023-02-14T23:21:55.486Z,64.80
2023-02-14T23:24:23.624Z,64.80
2023-02-14T23:26:52.066Z,64.80
2023-02-14T23:29:19.751Z,64.80
2023-02-14T23:31:47.598Z,64.80
2023-02-14T23:34:16.936Z,64.70
2023-02-14T23:36:44.657Z,64.70
2023-02-14T23:39:12.656Z,64.70
2023-02-14T23:41:49.632Z,64.60
2023-02-14T23:44:19.802Z,65.00
2023-02-14T23:46:48.497Z,64.70
2023-02-14T23:49:18.438Z,64.60
2023-02-14T23:51:47.612Z,64.60
2023-02-14T23:54:16.053Z,64.60
2023-02-14T23:56:45.161Z,64.60
2023-02-14T23:59:14.592Z,64.60
